Time;durP1;ratioP1;P1;durP2;ratioP2;P2;SDS_P1;SDS_P2;PMS_P1;PMS_P2;Temp;Humidity;BMP_temperature;BMP_pressure;BME280_temperature;BME280_humidity;BME280_pressure;Samples;Min_cycle;Max_cycle;Signal;HPM_P1;HPM_P2
2021/04/30 00:00:35;;;;;;;1.40;1.30;;;9.10;98.00;;;;;;5031077;28;20970;-68
2021/04/30 00:03:03;;;;;;;1.20;1.00;;;9.00;98.00;;;;;;5033432;28;20494;-67
2021/04/30 00:05:31;;;;;;;1.93;1.33;;;8.90;98.00;;;;;;5030978;28;20486;-68
2021/04/30 00:07:58;;;;;;;1.20;1.17;;;8.80;98.00;;;;;;5033567;28;20602;-67
2021/04/30 00:10:27;;;;;;;1.87;1.60;;;8.70;98.00;;;;;;5030114;28;20970;-67
2021/04/30 00:12:54;;;;;;;1.20;0.90;;;8.60;98.00;;;;;;5033453;28;20459;-67
2021/04/30 00:15:21;;;;;;;1.30;1.20;;;8.60;98.00;;;;;;5030962;28;20451;-68
2021/04/30 00:17:47;;;;;;;1.20;0.90;;;8.60;98.00;;;;;;5032103;28;20549;-67
2021/04/30 00:20:15;;;;;;;1.40;1.20;;;8.60;98.00;;;;;;5030563;28;20453;-67
2021/04/30 00:22:43;;;;;;;1.70;1.50;;;8.70;98.00;;;;;;5032988;28;20455;-69
2021/04/30 00:25:10;;;;;;;1.20;0.90;;;8.70;98.00;;;;;;5030289;28;20478;-69
2021/04/30 00:27:38;;;;;;;1.47;1.17;;;8.70;98.00;;;;;;5033016;28;20480;-67
2021/04/30 00:30:06;;;;;;;1.70;1.33;;;8.80;98.00;;;;;;5030031;28;20459;-68
2021/04/30 00:32:33;;;;;;;1.20;1.10;;;8.80;98.00;;;;;;5032872;28;20462;-68
2021/04/30 00:35:01;;;;;;;1.20;0.90;;;8.70;98.00;;;;;;5030660;28;20493;-69
2021/04/30 00:37:28;;;;;;;1.20;1.10;;;8.70;98.00;;;;;;5033203;28;20528;-67
2021/04/30 00:39:56;;;;;;;1.37;1.33;;;8.70;98.00;;;;;;5030424;28;20502;-67
2021/04/30 00:42:22;;;;;;;1.47;1.17;;;8.80;98.00;;;;;;5032761;28;20492;-66
2021/04/30 00:44:49;;;;;;;2.60;1.30;;;8.80;98.00;;;;;;5028762;28;20486;-67
2021/04/30 00:47:27;;;;;;;1.90;1.47;;;8.80;98.00;;;;;;5032583;28;20821;-68
2021/04/30 00:49:53;;;;;;;1.20;1.13;;;8.80;98.00;;;;;;5030100;28;20457;-68
2021/04/30 00:52:26;;;;;;;1.40;1.20;;;9.00;98.00;;;;;;5031239;28;20945;-68
2021/04/30 00:54:52;;;;;;;1.20;1.13;;;9.10;98.00;;;;;;5028824;28;21030;-67
2021/04/30 00:57:25;;;;;;;1.40;1.40;;;9.10;98.00;;;;;;5032377;28;20466;-68
2021/04/30 00:59:53;;;;;;;1.40;1.30;;;9.10;98.00;;;;;;5029879;28;20879;-67
2021/04/30 01:02:19;;;;;;;1.40;1.27;;;9.10;98.00;;;;;;5032391;28;21096;-68
2021/04/30 01:04:46;;;;;;;1.20;0.90;;;9.20;98.00;;;;;;5029731;28;20548;-66
2021/04/30 01:07:13;;;;;;;1.30;1.10;;;9.10;98.00;;;;;;5032292;28;20460;-68
2021/04/30 01:09:39;;;;;;;1.20;0.90;;;9.00;98.00;;;;;;5028416;28;20541;-69
2021/04/30 01:12:07;;;;;;;1.40;1.20;;;9.10;98.00;;;;;;5032193;28;20468;-66
2021/04/30 01:14:35;;;;;;;2.33;1.63;;;9.20;98.00;;;;;;5029795;28;20461;-68
2021/04/30 01:17:02;;;;;;;4.17;1.70;;;9.40;98.00;;;;;;5030802;28;20671;-67
2021/04/30 01:19:30;;;;;;;1.80;1.23;;;9.50;98.00;;;;;;5011780;28;20539;-66
2021/04/30 01:22:00;;;;;;;1.30;1.10;;;9.50;98.00;;;;;;5032014;28;20458;-67
2021/04/30 01:24:27;;;;;;;1.20;0.90;;;9.40;98.00;;;;;;5029116;28;20496;-68
2021/04/30 01:26:55;;;;;;;1.20;0.97;;;9.40;98.00;;;;;;5031873;28;20459;-67
2021/04/30 01:29:22;;;;;;;1.67;1.40;;;9.40;98.00;;;;;;5028684;28;20470;-68
2021/04/30 01:31:49;;;;;;;1.60;1.30;;;9.20;98.00;;;;;;5031960;28;20475;-67
2021/04/30 01:34:16;;;;;;;1.30;1.10;;;8.90;98.00;;;;;;5028264;28;20951;-68
2021/04/30 01:36:46;;;;;;;1.50;1.20;;;9.00;98.00;;;;;;5032259;28;20495;-67
2021/04/30 01:39:14;;;;;;;2.13;1.40;;;9.00;98.00;;;;;;5043526;28;20472;-67
2021/04/30 01:41:41;;;;;;;1.20;0.90;;;8.90;98.00;;;;;;5031778;28;20460;-67
2021/04/30 01:44:09;;;;;;;1.30;1.10;;;8.90;98.00;;;;;;5029226;28;20479;-68
2021/04/30 01:46:36;;;;;;;1.50;1.27;;;9.00;98.00;;;;;;5031737;28;20462;-68
2021/04/30 01:49:03;;;;;;;1.87;1.27;;;9.00;98.00;;;;;;5029079;28;20460;-68
2021/04/30 01:51:30;;;;;;;1.20;1.10;;;9.20;98.00;;;;;;5031527;28;20459;-66
2021/04/30 01:53:57;;;;;;;2.40;1.90;;;9.30;98.00;;;;;;5028638;28;20460;-66
2021/04/30 01:56:25;;;;;;;1.20;1.07;;;9.20;98.00;;;;;;5031242;28;20460;-68
2021/04/30 01:58:52;;;;;;;1.50;1.07;;;9.20;98.00;;;;;;5029978;28;20460;-67
2021/04/30 02:01:20;;;;;;;1.40;1.30;;;9.20;98.00;;;;;;5028776;28;20494;-67
2021/04/30 02:03:46;;;;;;;1.87;1.20;;;9.30;98.00;;;;;;5031042;28;21033;-68
2021/04/30 02:06:13;;;;;;;1.50;1.20;;;9.40;98.00;;;;;;5028886;28;20979;-67
2021/04/30 02:08:39;;;;;;;1.40;1.20;;;9.60;98.00;;;;;;5031183;28;20669;-69
2021/04/30 02:11:06;;;;;;;1.80;1.53;;;9.30;98.00;;;;;;5028615;28;20459;-68
2021/04/30 02:13:34;;;;;;;2.17;1.50;;;9.10;98.00;;;;;;5031134;28;20456;-67
2021/04/30 02:16:01;;;;;;;2.03;1.30;;;8.90;98.00;;;;;;5028363;28;20832;-68
2021/04/30 02:18:27;;;;;;;1.73;1.47;;;8.90;98.00;;;;;;5030973;28;20539;-67
2021/04/30 02:20:54;;;;;;;1.20;0.90;;;8.90;98.00;;;;;;5028468;28;20464;-68
2021/04/30 02:23:21;;;;;;;1.20;1.00;;;9.10;98.00;;;;;;5029707;28;20465;-66
2021/04/30 02:25:48;;;;;;;2.33;1.70;;;9.00;98.00;;;;;;5028241;28;20506;-69
2021/04/30 02:28:15;;;;;;;1.30;1.10;;;9.10;98.00;;;;;;5030827;28;20821;-67
2021/04/30 02:30:43;;;;;;;1.50;1.20;;;9.20;98.00;;;;;;5028560;28;20458;-68
2021/04/30 02:33:11;;;;;;;1.97;1.40;;;9.10;98.00;;;;;;5030825;28;20484;-66
2021/04/30 02:35:40;;;;;;;1.60;1.10;;;9.20;98.00;;;;;;5028533;28;20969;-68
2021/04/30 02:38:07;;;;;;;1.50;1.20;;;9.00;98.00;;;;;;5030610;28;20559;-69
2021/04/30 02:40:36;;;;;;;1.20;1.00;;;9.10;98.00;;;;;;5029031;28;20459;-68
2021/04/30 02:43:09;;;;;;;9.13;2.30;;;9.10;98.00;;;;;;5032088;28;20490;-66
2021/04/30 02:45:37;;;;;;;1.30;1.27;;;9.10;98.00;;;;;;5028619;28;20494;-67
2021/04/30 02:48:09;;;;;;;1.30;1.17;;;9.20;98.00;;;;;;5030750;28;20473;-67
2021/04/30 02:50:37;;;;;;;2.23;1.30;;;9.30;98.00;;;;;;5028189;28;20459;-68
2021/04/30 02:53:03;;;;;;;1.50;1.40;;;9.50;98.00;;;;;;5030721;28;20450;-67
2021/04/30 02:55:30;;;;;;;1.40;1.10;;;9.40;98.00;;;;;;5028017;28;20782;-68
2021/04/30 02:58:00;;;;;;;1.47;1.27;;;9.30;98.00;;;;;;5029614;28;20960;-67
2021/04/30 03:00:28;;;;;;;1.57;1.30;;;9.30;98.00;;;;;;5028437;28;20543;-67
2021/04/30 03:02:55;;;;;;;1.20;1.00;;;9.30;98.00;;;;;;5013520;28;20461;-68
2021/04/30 03:05:22;;;;;;;1.40;1.10;;;9.40;98.00;;;;;;5028335;28;21009;-67
2021/04/30 03:07:49;;;;;;;1.20;1.00;;;9.40;98.00;;;;;;5031461;28;20513;-67
2021/04/30 03:10:17;;;;;;;1.70;1.40;;;9.30;98.00;;;;;;5032134;28;20451;-68
2021/04/30 03:12:43;;;;;;;1.60;1.37;;;9.30;98.00;;;;;;5034829;28;20520;-67
2021/04/30 03:15:13;;;;;;;3.93;1.83;;;9.30;98.00;;;;;;5031999;28;20573;-69
2021/04/30 03:17:40;;;;;;;2.60;1.60;;;9.30;98.00;;;;;;5034479;28;20490;-67
2021/04/30 03:20:08;;;;;;;1.20;1.10;;;9.30;98.00;;;;;;5031693;28;20463;-67
2021/04/30 03:22:36;;;;;;;1.67;1.07;;;9.20;98.00;;;;;;5034271;28;20460;-67
2021/04/30 03:25:04;;;;;;;1.30;1.10;;;9.20;98.00;;;;;;5031956;28;20482;-67
2021/04/30 03:27:30;;;;;;;1.73;1.10;;;9.00;98.00;;;;;;5034197;28;20480;-68
2021/04/30 03:29:57;;;;;;;1.20;1.03;;;9.00;98.00;;;;;;5031576;28;20460;-68
2021/04/30 03:32:23;;;;;;;1.70;1.30;;;9.00;98.00;;;;;;5034020;28;20943;-67
2021/04/30 03:34:51;;;;;;;1.37;1.30;;;9.00;98.00;;;;;;5031576;28;20669;-68
2021/04/30 03:37:18;;;;;;;1.73;1.40;;;9.10;98.00;;;;;;5033919;28;20454;-69
2021/04/30 03:39:45;;;;;;;1.20;0.90;;;9.10;98.00;;;;;;5031515;28;20591;-66
2021/04/30 03:42:12;;;;;;;1.33;1.13;;;9.20;98.00;;;;;;5033702;28;20455;-68
2021/04/30 03:44:38;;;;;;;1.87;1.17;;;9.20;98.00;;;;;;5031327;28;20483;-67
2021/04/30 03:47:05;;;;;;;1.30;1.10;;;9.20;98.00;;;;;;5033713;28;20458;-67
2021/04/30 03:49:31;;;;;;;1.20;1.00;;;9.10;98.00;;;;;;5031189;28;20494;-68
2021/04/30 03:51:59;;;;;;;1.30;1.10;;;9.20;98.00;;;;;;5032558;28;20489;-67
2021/04/30 03:54:26;;;;;;;1.20;1.10;;;9.30;98.00;;;;;;5031233;28;20957;-67
2021/04/30 03:56:53;;;;;;;1.67;1.53;;;9.10;98.00;;;;;;5032338;28;20949;-67
2021/04/30 03:59:19;;;;;;;1.20;1.10;;;8.90;98.00;;;;;;5031094;28;20463;-68
2021/04/30 04:01:46;;;;;;;1.80;1.60;;;8.80;98.00;;;;;;5032158;28;20466;-67
2021/04/30 04:04:12;;;;;;;1.53;1.10;;;8.70;98.00;;;;;;5031047;28;20845;-67
2021/04/30 04:06:39;;;;;;;2.87;1.90;;;8.80;98.00;;;;;;5033549;28;20825;-68
2021/04/30 04:09:05;;;;;;;1.60;1.13;;;8.80;98.00;;;;;;5032161;28;20462;-67
2021/04/30 04:11:32;;;;;;;1.90;1.83;;;8.70;98.00;;;;;;5030444;28;20948;-68
2021/04/30 04:13:59;;;;;;;1.97;1.43;;;8.80;98.00;;;;;;5033312;28;20533;-67
2021/04/30 04:16:25;;;;;;;2.50;1.37;;;8.90;98.00;;;;;;5030568;28;20491;-67
2021/04/30 04:18:52;;;;;;;1.20;1.00;;;8.90;98.00;;;;;;5032856;28;20526;-67
2021/04/30 04:21:18;;;;;;;1.97;1.27;;;8.90;98.00;;;;;;5030557;28;20892;-68
2021/04/30 04:23:45;;;;;;;1.20;0.90;;;8.90;98.00;;;;;;5033084;28;20455;-68
2021/04/30 04:26:11;;;;;;;1.50;1.27;;;8.90;98.00;;;;;;5030558;28;20529;-68
2021/04/30 04:28:38;;;;;;;1.53;1.30;;;9.00;98.00;;;;;;5032974;28;20892;-67
2021/04/30 04:31:05;;;;;;;1.20;1.00;;;9.00;98.00;;;;;;5030464;28;20461;-68
2021/04/30 04:33:32;;;;;;;2.13;1.43;;;9.00;98.00;;;;;;5032907;28;20731;-68
2021/04/30 04:35:58;;;;;;;1.80;1.40;;;9.00;98.00;;;;;;5030583;28;20975;-67
2021/04/30 04:38:27;;;;;;;1.90;1.50;;;9.00;98.00;;;;;;5031823;28;20470;-67
2021/04/30 04:40:54;;;;;;;1.53;1.23;;;8.90;98.00;;;;;;5029549;28;20462;-67
2021/04/30 04:43:20;;;;;;;3.83;1.50;;;8.80;98.00;;;;;;5033011;28;20465;-67
2021/04/30 04:45:47;;;;;;;1.63;1.60;;;8.60;98.00;;;;;;5030112;28;20483;-67
2021/04/30 04:48:14;;;;;;;4.03;1.30;;;8.60;98.00;;;;;;5032085;28;20486;-68
2021/04/30 04:50:41;;;;;;;1.40;1.40;;;8.50;98.00;;;;;;5030421;28;20495;-67
2021/04/30 04:53:07;;;;;;;1.30;1.10;;;8.40;98.00;;;;;;5031968;28;20862;-67
2021/04/30 04:55:35;;;;;;;1.50;1.37;;;8.40;98.00;;;;;;5028703;28;20502;-67
2021/04/30 04:58:02;;;;;;;2.17;1.77;;;8.70;98.00;;;;;;5032332;28;20468;-68
2021/04/30 05:00:28;;;;;;;1.40;1.20;;;8.70;98.00;;;;;;5028608;28;20670;-68
2021/04/30 05:02:55;;;;;;;1.67;1.30;;;8.70;98.00;;;;;;5031013;28;20506;-67
2021/04/30 05:05:22;;;;;;;2.50;1.63;;;8.80;98.00;;;;;;5029915;28;20482;-67
2021/04/30 05:07:49;;;;;;;1.20;1.03;;;8.90;98.00;;;;;;5032361;28;20521;-67
2021/04/30 05:10:19;;;;;;;1.30;1.20;;;8.90;98.00;;;;;;5028539;28;20960;-67
2021/04/30 05:12:46;;;;;;;2.20;1.47;;;9.00;98.00;;;;;;5032360;28;20493;-68
2021/04/30 05:15:14;;;;;;;1.30;1.20;;;9.10;98.00;;;;;;5029587;28;20452;-67
2021/04/30 05:17:40;;;;;;;2.17;1.37;;;9.10;98.00;;;;;;5032085;28;20478;-66
2021/04/30 05:20:09;;;;;;;5.23;1.43;;;9.30;98.00;;;;;;5029611;28;20905;-68
2021/04/30 05:22:39;;;;;;;1.37;1.33;;;9.20;98.00;;;;;;5014725;28;20525;-66
2021/04/30 05:25:08;;;;;;;1.33;1.20;;;9.30;98.00;;;;;;5028122;28;20487;-67
2021/04/30 05:27:35;;;;;;;1.87;1.43;;;9.40;98.00;;;;;;5030463;28;20463;-67
2021/04/30 05:30:02;;;;;;;1.47;1.30;;;9.20;98.00;;;;;;5027769;28;20463;-66
2021/04/30 05:32:28;;;;;;;1.87;1.77;;;9.20;98.00;;;;;;5031094;28;20458;-67
2021/04/30 05:34:57;;;;;;;1.53;1.47;;;9.10;98.00;;;;;;5029349;28;20456;-68
2021/04/30 05:37:23;;;;;;;1.40;1.37;;;9.20;98.00;;;;;;5031702;28;20462;-67
2021/04/30 05:39:51;;;;;;;2.37;1.70;;;9.30;98.00;;;;;;5028139;28;20992;-69
2021/04/30 05:42:18;;;;;;;1.87;1.30;;;9.50;98.00;;;;;;5031625;28;20493;-67
2021/04/30 05:44:45;;;;;;;1.73;1.63;;;9.50;98.00;;;;;;5028708;28;20573;-68
2021/04/30 05:47:11;;;;;;;1.20;1.00;;;9.40;98.00;;;;;;5031461;28;20863;-67
2021/04/30 05:49:39;;;;;;;1.30;1.30;;;9.50;98.00;;;;;;5029174;28;20466;-67
2021/04/30 05:52:06;;;;;;;1.30;1.20;;;9.50;98.00;;;;;;5031318;28;20460;-69
2021/04/30 05:54:33;;;;;;;1.20;1.00;;;9.60;98.00;;;;;;5027705;28;20489;-67
2021/04/30 05:57:00;;;;;;;1.20;1.10;;;9.70;98.00;;;;;;5031400;28;20459;-68
2021/04/30 05:59:26;;;;;;;1.50;1.33;;;9.50;98.00;;;;;;5028812;28;20478;-67
2021/04/30 06:01:53;;;;;;;1.97;1.60;;;9.50;98.00;;;;;;5031538;28;20460;-66
2021/04/30 06:04:19;;;;;;;1.60;1.60;;;9.70;98.00;;;;;;5030771;28;20466;-66
2021/04/30 06:06:50;;;;;;;1.97;1.50;;;9.70;98.00;;;;;;5030199;28;20460;-67
2021/04/30 06:09:17;;;;;;;1.50;1.40;;;9.80;98.00;;;;;;5031212;28;20458;-68
2021/04/30 06:11:44;;;;;;;3.10;1.67;;;9.90;98.00;;;;;;5011018;28;20468;-67
2021/04/30 06:14:12;;;;;;;1.33;1.23;;;10.00;98.00;;;;;;5031191;28;20852;-66
2021/04/30 06:16:40;;;;;;;2.37;1.57;;;10.00;98.00;;;;;;5028641;28;20534;-66
2021/04/30 06:19:10;;;;;;;3.60;1.73;;;10.10;98.00;;;;;;5031149;28;20511;-67
2021/04/30 06:21:37;;;;;;;1.20;1.00;;;10.10;98.00;;;;;;5028781;28;20457;-67
2021/04/30 06:24:04;;;;;;;1.20;1.00;;;10.10;98.00;;;;;;5031205;28;20522;-66
2021/04/30 06:26:31;;;;;;;1.30;1.17;;;10.10;98.00;;;;;;5028475;28;20460;-67
2021/04/30 06:29:00;;;;;;;2.13;1.70;;;9.90;97.10;;;;;;5029676;28;20499;-66
2021/04/30 06:31:28;;;;;;;1.47;1.20;;;9.90;98.00;;;;;;5028130;28;20462;-67
2021/04/30 06:33:54;;;;;;;2.33;1.57;;;10.00;98.00;;;;;;5030935;28;20507;-66
2021/04/30 06:36:21;;;;;;;2.27;1.50;;;10.10;97.50;;;;;;5027340;28;20470;-67
2021/04/30 06:38:48;;;;;;;1.20;0.90;;;10.50;96.50;;;;;;5030868;28;20517;-67
2021/04/30 06:41:15;;;;;;;1.57;1.30;;;10.70;97.00;;;;;;5028250;28;20954;-68
2021/04/30 06:43:41;;;;;;;1.47;1.40;;;10.80;95.80;;;;;;5029865;28;20468;-66
2021/04/30 06:46:08;;;;;;;2.50;1.40;;;10.90;96.10;;;;;;5027901;28;20522;-68
2021/04/30 06:48:35;;;;;;;1.70;1.60;;;10.90;96.40;;;;;;5030677;28;20468;-68
2021/04/30 06:51:03;;;;;;;1.63;1.50;;;10.90;96.60;;;;;;5028171;28;20468;-68
2021/04/30 06:53:29;;;;;;;1.60;1.47;;;10.70;95.60;;;;;;5030667;28;21014;-67
2021/04/30 06:55:56;;;;;;;1.33;1.20;;;10.70;96.40;;;;;;5028200;28;20466;-68
2021/04/30 06:58:22;;;;;;;3.53;1.60;;;10.90;97.10;;;;;;5030844;28;20471;-69
2021/04/30 07:00:49;;;;;;;2.03;1.27;;;10.90;96.70;;;;;;5028050;28;20460;-67
2021/04/30 07:03:15;;;;;;;2.37;1.63;;;10.90;95.90;;;;;;5030493;28;20864;-68
2021/04/30 07:05:43;;;;;;;2.07;1.67;;;10.80;95.70;;;;;;5027987;28;20478;-67
2021/04/30 07:08:11;;;;;;;2.00;1.57;;;10.90;96.00;;;;;;5030369;28;20873;-67
2021/04/30 07:10:37;;;;;;;2.17;1.20;;;10.60;96.30;;;;;;5027961;28;20479;-67
2021/04/30 07:13:10;;;;;;;1.20;1.10;;;10.60;96.30;;;;;;5030387;28;20554;-67
2021/04/30 07:15:36;;;;;;;2.17;1.87;;;10.70;97.10;;;;;;5027985;28;20461;-68
2021/04/30 07:18:03;;;;;;;1.53;1.50;;;10.80;95.00;;;;;;5030487;28;20824;-68
2021/04/30 07:20:31;;;;;;;1.30;1.20;;;10.80;96.00;;;;;;5027789;28;20465;-68
2021/04/30 07:22:58;;;;;;;2.10;1.60;;;10.70;96.70;;;;;;5030435;28;20462;-67
2021/04/30 07:25:25;;;;;;;1.47;1.30;;;10.70;96.40;;;;;;5026717;28;20518;-67
2021/04/30 07:27:51;;;;;;;2.30;2.00;;;10.60;96.50;;;;;;5029865;28;20462;-67
2021/04/30 07:30:19;;;;;;;1.97;1.70;;;10.60;96.40;;;;;;5027455;28;20478;-68
2021/04/30 07:32:45;;;;;;;4.30;1.63;;;10.50;97.30;;;;;;5028556;28;20465;-66
2021/04/30 07:35:12;;;;;;;1.20;1.00;;;10.60;97.80;;;;;;5027377;28;20977;-68
2021/04/30 07:37:39;;;;;;;4.20;1.87;;;10.60;97.10;;;;;;5029781;28;20461;-66
2021/04/30 07:40:08;;;;;;;1.93;1.37;;;10.50;98.00;;;;;;5027201;28;20504;-66
2021/04/30 07:42:34;;;;;;;2.60;1.90;;;10.40;98.00;;;;;;5029815;28;20976;-66
2021/04/30 07:45:01;;;;;;;2.03;1.53;;;10.30;98.00;;;;;;5027115;28;20493;-68
2021/04/30 07:47:28;;;;;;;1.20;1.00;;;10.30;97.60;;;;;;5030131;28;20486;-67
2021/04/30 07:49:58;;;;;;;1.20;1.10;;;10.30;98.00;;;;;;5027626;28;20521;-69
2021/04/30 07:52:25;;;;;;;3.20;1.87;;;10.30;98.00;;;;;;5029882;28;20982;-66
2021/04/30 07:54:51;;;;;;;1.80;1.20;;;10.50;98.00;;;;;;5029224;28;21018;-68
2021/04/30 07:57:19;;;;;;;1.20;1.00;;;10.50;98.00;;;;;;5033271;28;20465;-67
2021/04/30 07:59:45;;;;;;;1.90;1.50;;;10.70;98.00;;;;;;5030567;28;20462;-68
2021/04/30 08:02:12;;;;;;;2.57;1.57;;;10.90;98.00;;;;;;5033037;28;20457;-68
2021/04/30 08:04:39;;;;;;;3.27;2.30;;;10.90;96.10;;;;;;5030707;28;20486;-66
2021/04/30 08:07:05;;;;;;;2.00;1.73;;;10.80;97.50;;;;;;5033361;28;20454;-68
2021/04/30 08:09:32;;;;;;;2.13;1.40;;;11.00;97.00;;;;;;5032573;28;20458;-69
2021/04/30 08:11:59;;;;;;;2.73;2.33;;;11.00;97.60;;;;;;5031637;28;20503;-68
2021/04/30 08:14:30;;;;;;;2.37;1.77;;;11.00;98.00;;;;;;5033027;28;20947;-68
2021/04/30 08:16:56;;;;;;;1.73;1.17;;;11.00;97.10;;;;;;5030454;28;20465;-69
2021/04/30 08:19:24;;;;;;;1.80;1.40;;;10.90;98.00;;;;;;5033200;28;20838;-68
2021/04/30 08:21:51;;;;;;;1.90;1.50;;;10.80;98.00;;;;;;5030410;28;20552;-68
2021/04/30 08:24:21;;;;;;;2.33;1.83;;;10.70;98.00;;;;;;5032908;28;20988;-68
2021/04/30 08:26:47;;;;;;;3.00;1.70;;;10.70;98.00;;;;;;5028774;28;20525;-68
2021/04/30 08:29:14;;;;;;;3.00;2.00;;;10.70;98.00;;;;;;5030977;28;20474;-67
2021/04/30 08:31:41;;;;;;;3.47;2.00;;;10.70;98.00;;;;;;5029068;28;20458;-68
2021/04/30 08:34:09;;;;;;;2.90;2.60;;;10.80;98.00;;;;;;5032904;28;20528;-67
2021/04/30 08:36:35;;;;;;;1.50;1.27;;;10.70;98.00;;;;;;5030229;28;20461;-68
2021/04/30 08:39:02;;;;;;;2.00;1.77;;;10.80;98.00;;;;;;5033005;28;20494;-67
2021/04/30 08:41:29;;;;;;;1.50;1.30;;;11.00;98.00;;;;;;5030079;28;20459;-67
2021/04/30 08:43:56;;;;;;;1.27;1.17;;;11.20;98.00;;;;;;5032730;28;20450;-68
2021/04/30 08:46:22;;;;;;;1.37;1.27;;;11.30;98.00;;;;;;5029985;28;20503;-67
2021/04/30 08:48:50;;;;;;;1.50;1.40;;;11.20;98.00;;;;;;5032796;28;20469;-68
2021/04/30 08:51:16;;;;;;;2.07;1.60;;;11.20;97.90;;;;;;5029924;28;21021;-68
2021/04/30 08:53:44;;;;;;;1.53;1.23;;;11.10;98.00;;;;;;5032694;28;20983;-68
2021/04/30 08:56:10;;;;;;;1.70;1.70;;;11.20;98.00;;;;;;5028660;28;20948;-67
2021/04/30 08:58:38;;;;;;;2.07;1.70;;;11.30;98.00;;;;;;5032483;28;20465;-69
2021/04/30 09:01:05;;;;;;;2.37;2.17;;;11.30;98.00;;;;;;5028846;28;21047;-67
2021/04/30 09:03:34;;;;;;;1.90;1.27;;;11.30;98.00;;;;;;5032570;28;20513;-69
2021/04/30 09:06:01;;;;;;;1.20;1.00;;;11.60;98.00;;;;;;5029524;28;20857;-69
2021/04/30 09:08:28;;;;;;;1.40;1.20;;;11.90;97.60;;;;;;5032505;28;20461;-67
2021/04/30 09:10:57;;;;;;;2.30;1.40;;;12.20;95.90;;;;;;5029849;28;20794;-68
2021/04/30 09:13:24;;;;;;;1.93;1.53;;;12.50;95.40;;;;;;5032289;28;20470;-67
2021/04/30 09:16:04;;;;;;;2.37;1.30;;;12.60;93.90;;;;;;5029821;28;20498;-67
2021/04/30 09:18:33;;;;;;;1.53;1.27;;;12.70;93.70;;;;;;5032296;28;21055;-68
2021/04/30 09:21:08;;;;;;;2.37;1.50;;;12.70;93.30;;;;;;5029694;28;20513;-67
2021/04/30 09:23:38;;;;;;;2.07;1.67;;;12.70;94.20;;;;;;5032788;28;20964;-69
2021/04/30 09:26:21;;;;;;;2.57;2.00;;;12.80;92.80;;;;;;5030059;28;20837;-67
2021/04/30 09:29:01;;;;;;;1.77;1.27;;;12.80;92.40;;;;;;5032572;28;20507;-67
2021/04/30 09:31:36;;;;;;;2.07;1.60;;;12.80;92.10;;;;;;5028821;28;20467;-69
2021/04/30 09:34:25;;;;;;;2.80;1.70;;;12.70;93.10;;;;;;5032613;28;20987;-68
2021/04/30 09:37:06;;;;;;;1.80;1.63;;;12.70;91.30;;;;;;5029580;28;20493;-69
2021/04/30 09:39:48;;;;;;;2.80;1.93;;;12.70;91.90;;;;;;5032342;28;21052;-67
2021/04/30 09:42:17;;;;;;;1.67;1.43;;;12.60;92.40;;;;;;5032265;28;20969;-69
2021/04/30 09:44:45;;;;;;;2.27;1.40;;;12.60;92.50;;;;;;5029216;28;20595;-68
2021/04/30 09:47:14;;;;;;;1.50;1.20;;;12.50;91.30;;;;;;5032156;28;20484;-68
2021/04/30 09:49:40;;;;;;;1.50;1.30;;;12.40;91.30;;;;;;5032098;28;20458;-68
2021/04/30 09:52:11;;;;;;;4.17;2.07;;;12.20;91.30;;;;;;5029932;28;20879;-68
2021/04/30 09:54:40;;;;;;;1.40;1.13;;;11.90;91.50;;;;;;5031773;28;20937;-68
2021/04/30 09:57:11;;;;;;;1.30;1.20;;;11.90;93.40;;;;;;5029839;28;20474;-68
2021/04/30 09:59:41;;;;;;;2.07;1.97;;;11.90;93.70;;;;;;5030802;28;20906;-68
2021/04/30 10:02:17;;;;;;;2.83;1.63;;;11.90;93.60;;;;;;5029712;28;20975;-68
2021/04/30 10:04:45;;;;;;;3.10;2.27;;;12.00;94.10;;;;;;5031475;28;20463;-68
2021/04/30 10:07:14;;;;;;;2.80;1.77;;;11.90;93.40;;;;;;5031471;28;20838;-67
2021/04/30 10:09:42;;;;;;;1.83;1.67;;;12.00;94.70;;;;;;5032068;28;20488;-69
2021/04/30 10:12:27;;;;;;;2.13;1.27;;;12.10;94.20;;;;;;5026405;28;20462;-67
2021/04/30 10:14:54;;;;;;;1.20;1.10;;;12.20;93.80;;;;;;5028112;28;20465;-69
2021/04/30 10:17:21;;;;;;;2.57;1.70;;;12.30;92.80;;;;;;5030718;28;20485;-67
2021/04/30 10:19:49;;;;;;;1.40;1.30;;;12.40;92.30;;;;;;5029304;28;20465;-67
2021/04/30 10:22:20;;;;;;;1.20;1.00;;;12.40;91.80;;;;;;5030936;28;20473;-67
2021/04/30 10:24:50;;;;;;;2.53;1.60;;;12.30;90.80;;;;;;5029835;28;20461;-68
2021/04/30 10:27:19;;;;;;;2.07;1.40;;;12.20;91.10;;;;;;5031290;28;20543;-67
2021/04/30 10:30:05;;;;;;;4.13;2.57;;;12.10;91.60;;;;;;5029338;28;20484;-67
2021/04/30 10:32:39;;;;;;;1.30;1.20;;;12.10;91.90;;;;;;5030116;28;20873;-68
2021/04/30 10:35:09;;;;;;;2.17;1.70;;;12.10;91.70;;;;;;5027325;28;21193;-68
2021/04/30 10:37:40;;;;;;;2.00;1.70;;;12.10;91.80;;;;;;5030214;28;20459;-68
2021/04/30 10:40:08;;;;;;;1.93;1.47;;;12.00;91.20;;;;;;5027946;28;20464;-67
2021/04/30 10:42:45;;;;;;;2.57;1.73;;;11.90;91.60;;;;;;5030340;28;20517;-67
2021/04/30 10:45:14;;;;;;;2.90;1.63;;;11.80;91.60;;;;;;5027955;28;20578;-68
2021/04/30 10:47:41;;;;;;;2.80;1.40;;;11.70;93.00;;;;;;5029138;28;20520;-69
2021/04/30 10:50:14;;;;;;;3.10;2.60;;;11.70;92.10;;;;;;5027677;28;20467;-69
2021/04/30 10:52:42;;;;;;;1.97;1.40;;;11.60;92.70;;;;;;5030021;28;20502;-68
2021/04/30 10:55:16;;;;;;;1.90;1.67;;;11.60;92.80;;;;;;5027394;28;20937;-68
2021/04/30 10:57:50;;;;;;;4.70;2.57;;;11.60;92.40;;;;;;5030150;28;20546;-67
2021/04/30 11:00:18;;;;;;;1.20;1.00;;;11.70;93.40;;;;;;5027340;28;20466;-69
2021/04/30 11:02:45;;;;;;;1.50;1.43;;;11.60;93.20;;;;;;5028841;28;20459;-69
2021/04/30 11:05:16;;;;;;;1.30;1.20;;;11.50;93.00;;;;;;5025893;28;20496;-69
2021/04/30 11:07:46;;;;;;;1.90;1.50;;;11.50;93.60;;;;;;5029880;28;20552;-68
2021/04/30 11:10:39;;;;;;;1.40;1.20;;;11.30;94.70;;;;;;5027146;28;20468;-67
2021/04/30 11:13:17;;;;;;;4.03;1.97;;;11.30;96.00;;;;;;5029536;28;20458;-68
2021/04/30 11:15:57;;;;;;;1.43;1.30;;;11.10;96.20;;;;;;5027755;28;20495;-68
2021/04/30 11:18:25;;;;;;;1.40;1.17;;;11.10;98.00;;;;;;5029696;28;20473;-68
2021/04/30 11:21:04;;;;;;;2.30;2.13;;;11.00;98.00;;;;;;5027097;28;20535;-68
2021/04/30 11:23:38;;;;;;;1.90;1.60;;;10.90;98.00;;;;;;5030000;28;20883;-68
2021/04/30 11:26:10;;;;;;;2.27;1.50;;;10.80;98.00;;;;;;5027066;28;20494;-67
2021/04/30 11:29:09;;;;;;;1.93;1.40;;;10.70;98.00;;;;;;5006409;28;686991;-69
2021/04/30 11:31:40;;;;;;;2.50;2.03;;;10.60;98.00;;;;;;5031648;28;20456;-68
2021/04/30 11:34:22;;;;;;;3.10;2.20;;;10.60;98.00;;;;;;5034405;28;20456;-69
2021/04/30 11:36:56;;;;;;;1.70;1.37;;;10.50;98.00;;;;;;5031446;28;20457;-68
2021/04/30 11:39:26;;;;;;;2.20;1.97;;;10.50;98.00;;;;;;5034334;28;20957;-68
2021/04/30 11:41:57;;;;;;;1.50;1.47;;;10.50;98.00;;;;;;5031840;28;20458;-68
2021/04/30 11:44:24;;;;;;;1.20;1.00;;;10.50;98.00;;;;;;5034527;28;20507;-69
2021/04/30 11:47:01;;;;;;;1.73;1.47;;;10.60;98.00;;;;;;5031833;28;20482;-69
2021/04/30 11:49:29;;;;;;;1.97;1.50;;;10.50;98.00;;;;;;5034305;28;20950;-67
2021/04/30 11:51:55;;;;;;;1.77;1.30;;;10.40;98.00;;;;;;5030774;28;20465;-68
2021/04/30 11:54:29;;;;;;;1.60;1.60;;;10.30;98.00;;;;;;5034075;28;20992;-68
2021/04/30 11:57:01;;;;;;;2.03;1.50;;;10.20;98.00;;;;;;5031351;28;20998;-68
2021/04/30 11:59:28;;;;;;;3.23;1.83;;;10.20;98.00;;;;;;5034069;28;20466;-68
2021/04/30 12:02:04;;;;;;;2.77;1.90;;;10.20;98.00;;;;;;5031010;28;20505;-69
2021/04/30 12:04:40;;;;;;;2.20;2.10;;;10.20;98.00;;;;;;5032464;28;20557;-69
2021/04/30 12:07:07;;;;;;;2.90;2.33;;;10.10;98.00;;;;;;5031396;28;20929;-69
2021/04/30 12:09:34;;;;;;;2.00;1.77;;;10.10;98.00;;;;;;5033841;28;20989;-68
2021/04/30 12:12:19;;;;;;;1.20;1.00;;;10.00;98.00;;;;;;5031134;28;21017;-69
2021/04/30 12:14:50;;;;;;;2.30;1.83;;;9.70;98.00;;;;;;5033829;28;20541;-68
2021/04/30 12:17:31;;;;;;;3.13;1.73;;;9.60;98.00;;;;;;5030578;28;20458;-70
2021/04/30 12:20:02;;;;;;;2.37;1.83;;;9.40;98.00;;;;;;5032600;28;20465;-69
2021/04/30 12:22:29;;;;;;;1.93;1.53;;;9.50;98.00;;;;;;5033364;28;20476;-68
2021/04/30 12:25:18;;;;;;;1.93;1.73;;;9.60;98.00;;;;;;5033252;28;20454;-69
2021/04/30 12:27:45;;;;;;;1.47;1.33;;;9.50;98.00;;;;;;5033549;28;20498;-69
2021/04/30 12:30:13;;;;;;;2.40;2.20;;;9.50;98.00;;;;;;5030353;28;20536;-69
2021/04/30 12:32:44;;;;;;;1.67;1.63;;;9.50;98.00;;;;;;5033209;28;20957;-68
2021/04/30 12:35:12;;;;;;;4.90;3.57;;;9.50;98.00;;;;;;5030470;28;20511;-69
2021/04/30 12:37:39;;;;;;;1.83;1.40;;;9.50;98.00;;;;;;5033303;28;20458;-69
2021/04/30 12:40:07;;;;;;;1.37;1.20;;;9.60;98.00;;;;;;5030396;28;20508;-69
2021/04/30 12:42:48;;;;;;;2.23;1.90;;;9.60;98.00;;;;;;5032998;28;20487;-69
2021/04/30 12:45:16;;;;;;;3.20;2.10;;;9.60;98.00;;;;;;5030055;28;20485;-69
2021/04/30 12:47:44;;;;;;;1.43;1.37;;;9.70;98.00;;;;;;5032164;28;20454;-67
2021/04/30 12:50:12;;;;;;;2.47;1.30;;;9.60;98.00;;;;;;5028959;28;20865;-70
2021/04/30 12:52:41;;;;;;;5.23;2.37;;;9.40;98.00;;;;;;5032920;28;20804;-70
2021/04/30 12:55:28;;;;;;;1.77;1.43;;;9.40;98.00;;;;;;5029943;28;20486;-69
2021/04/30 12:58:17;;;;;;;2.27;1.57;;;9.40;98.00;;;;;;5032909;28;20539;-70
2021/04/30 13:01:05;;;;;;;1.80;1.13;;;9.40;98.00;;;;;;5030059;28;20493;-68